createdAt,value
2018-07-25T00:01:41.347Z,9.48
2018-07-25T00:04:10.675Z,5.90
2018-07-25T00:06:39.595Z,6.10
2018-07-25T00:09:10.045Z,8.23
2018-07-25T00:11:39.341Z,8.53
2018-07-25T00:14:08.370Z,7.67
2018-07-25T00:16:37.365Z,9.45
2018-07-25T00:19:06.314Z,6.70
2018-07-25T00:21:35.328Z,9.43
2018-07-25T00:24:04.289Z,10.40
2018-07-25T00:26:33.228Z,7.55
2018-07-25T00:29:02.225Z,8.40
2018-07-25T00:31:31.162Z,9.08
2018-07-25T00:34:00.071Z,8.58
2018-07-25T00:36:28.968Z,8.63
2018-07-25T00:38:57.909Z,9.18
2018-07-25T00:41:26.970Z,9.30
2018-07-25T00:43:56.071Z,6.78
2018-07-25T00:46:25.026Z,8.23
2018-07-25T00:48:55.757Z,6.87
2018-07-25T00:51:27.773Z,9.78
2018-07-25T00:54:01.362Z,8.58
2018-07-25T00:56:35.734Z,6.50
2018-07-25T00:59:11.220Z,9.38
2018-07-25T01:01:40.948Z,8.95
2018-07-25T01:04:10.639Z,7.00
2018-07-25T01:06:40.273Z,7.62
2018-07-25T01:09:11.058Z,7.12
2018-07-25T01:11:40.246Z,5.75
2018-07-25T01:14:09.653Z,7.40
2018-07-25T01:16:38.767Z,8.95
2018-07-25T01:19:07.684Z,8.53
2018-07-25T01:21:36.623Z,6.15
2018-07-25T01:24:05.577Z,7.95
2018-07-25T01:26:34.523Z,6.47
2018-07-25T01:29:03.453Z,6.42
2018-07-25T01:31:32.380Z,6.25
2018-07-25T01:34:01.353Z,8.78
2018-07-25T01:36:30.273Z,7.58
2018-07-25T01:38:59.187Z,11.15
2018-07-25T01:41:28.182Z,7.10
2018-07-25T01:43:57.068Z,7.28
2018-07-25T01:46:25.970Z,13.85
2018-07-25T01:48:54.903Z,6.72
2018-07-25T01:51:23.817Z,12.53
2018-07-25T01:53:52.740Z,8.18
2018-07-25T01:56:21.670Z,9.05
2018-07-25T01:58:50.618Z,7.65
2018-07-25T02:01:20.070Z,8.58
2018-07-25T02:03:49.077Z,9.15
2018-07-25T02:06:17.979Z,9.00
2018-07-25T02:08:46.969Z,10.23
2018-07-25T02:11:15.956Z,9.08
2018-07-25T02:13:44.882Z,8.33
2018-07-25T02:16:13.819Z,7.25
2018-07-25T02:18:42.733Z,8.73
2018-07-25T02:21:11.679Z,7.70
2018-07-25T02:23:40.590Z,7.70
2018-07-25T02:26:09.601Z,10.32
2018-07-25T02:28:38.552Z,10.82
2018-07-25T02:31:07.570Z,11.18
2018-07-25T02:33:41.806Z,9.75
2018-07-25T02:36:10.757Z,8.60
2018-07-25T02:38:39.674Z,7.53
2018-07-25T02:41:08.639Z,8.13
2018-07-25T02:43:37.672Z,10.65
2018-07-25T02:46:07.178Z,9.63
2018-07-25T02:48:36.114Z,9.10
2018-07-25T02:51:05.038Z,7.03
2018-07-25T02:53:33.994Z,7.75
2018-07-25T02:56:02.919Z,8.08
2018-07-25T02:58:31.859Z,7.50
2018-07-25T03:01:00.766Z,6.42
2018-07-25T03:03:29.735Z,9.80
2018-07-25T03:05:58.665Z,7.37
2018-07-25T03:08:27.671Z,10.82
2018-07-25T03:10:56.920Z,10.98
2018-07-25T03:13:26.323Z,8.95
2018-07-25T03:16:03.195Z,8.73
2018-07-25T03:18:32.139Z,7.20
2018-07-25T03:21:01.763Z,7.83
2018-07-25T03:23:32.157Z,9.65
2018-07-25T03:26:01.211Z,7.60
2018-07-25T03:28:30.467Z,7.83
2018-07-25T03:31:00.085Z,8.23
2018-07-25T03:33:29.004Z,9.78
2018-07-25T03:35:58.989Z,10.32
2018-07-25T03:38:28.571Z,7.70
2018-07-25T03:40:57.716Z,6.92
2018-07-25T03:43:26.609Z,7.25
2018-07-25T03:45:55.530Z,7.40
2018-07-25T03:48:24.465Z,10.40
2018-07-25T03:50:53.382Z,7.45
2018-07-25T03:53:22.441Z,8.43
2018-07-25T03:55:51.423Z,7.28
2018-07-25T03:58:20.359Z,11.05
2018-07-25T04:00:49.291Z,13.00
2018-07-25T04:03:18.256Z,7.75
2018-07-25T04:05:47.290Z,7.08
2018-07-25T04:08:16.355Z,10.03
2018-07-25T04:10:48.947Z,10.32
2018-07-25T04:13:18.793Z,7.50
2018-07-25T04:15:48.124Z,8.88
2018-07-25T04:18:17.286Z,11.05
2018-07-25T04:20:46.306Z,8.23
2018-07-25T04:23:15.214Z,8.23
2018-07-25T04:25:45.038Z,13.05
2018-07-25T04:28:19.704Z,7.47
2018-07-25T04:30:48.634Z,7.33
2018-07-25T04:33:17.547Z,7.30
2018-07-25T04:35:46.485Z,9.28
2018-07-25T04:38:15.405Z,7.10
2018-07-25T04:40:58.993Z,8.93
2018-07-25T04:43:27.902Z,12.50
2018-07-25T04:45:56.860Z,7.25
2018-07-25T04:48:25.747Z,6.80
2018-07-25T04:50:54.665Z,8.23
2018-07-25T04:53:23.605Z,7.62
2018-07-25T04:55:52.544Z,8.85
2018-07-25T04:58:21.474Z,9.48
2018-07-25T05:00:50.414Z,7.35
2018-07-25T05:03:19.382Z,9.95
2018-07-25T05:05:48.362Z,12.53
2018-07-25T05:08:17.350Z,7.75
2018-07-25T05:10:46.364Z,11.53
2018-07-25T05:13:15.359Z,13.85
2018-07-25T05:15:44.297Z,10.68
2018-07-25T05:18:13.295Z,9.33
2018-07-25T05:20:42.222Z,7.97
2018-07-25T05:23:11.198Z,6.80
2018-07-25T05:25:40.144Z,9.90
2018-07-25T05:28:09.173Z,7.83
2018-07-25T05:30:38.122Z,7.95
2018-07-25T05:33:07.182Z,6.72
2018-07-25T05:35:36.186Z,10.18
2018-07-25T05:38:05.281Z,8.45
2018-07-25T05:40:34.269Z,10.10
2018-07-25T05:43:03.182Z,8.08
2018-07-25T05:45:32.170Z,10.90
2018-07-25T05:48:01.094Z,6.70
2018-07-25T05:50:30.290Z,7.22
2018-07-25T05:52:59.321Z,6.45
2018-07-25T05:55:27.990Z,5.10
2018-07-25T05:57:57.288Z,8.65
2018-07-25T06:00:26.251Z,7.97
2018-07-25T06:02:55.453Z,6.47
2018-07-25T06:05:24.510Z,6.70
2018-07-25T06:07:53.466Z,15.33
2018-07-25T06:10:22.464Z,7.73
2018-07-25T06:12:51.919Z,6.57
2018-07-25T06:15:20.862Z,8.53
2018-07-25T06:17:49.883Z,6.10
2018-07-25T06:20:18.837Z,8.67
2018-07-25T06:22:47.827Z,5.73
2018-07-25T06:25:16.765Z,7.00
2018-07-25T06:27:46.568Z,5.87
2018-07-25T06:30:15.554Z,12.93
2018-07-25T06:32:44.706Z,9.17
2018-07-25T06:35:13.316Z,7.73
2018-07-25T06:37:42.266Z,5.97
2018-07-25T06:40:11.287Z,6.50
2018-07-25T06:42:40.331Z,11.37
2018-07-25T06:45:09.271Z,8.20
2018-07-25T06:47:38.208Z,10.27
2018-07-25T06:50:08.255Z,8.73
2018-07-25T06:52:37.842Z,11.03
2018-07-25T06:55:07.241Z,6.17
2018-07-25T06:57:36.451Z,5.90
2018-07-25T07:00:06.047Z,8.33
2018-07-25T07:02:35.184Z,8.63
2018-07-25T07:05:05.980Z,5.83
2018-07-25T07:07:34.663Z,5.83
2018-07-25T07:10:03.644Z,5.70
2018-07-25T07:12:32.634Z,5.77
2018-07-25T07:15:01.926Z,5.93
2018-07-25T07:17:31.764Z,4.87
2018-07-25T07:20:01.498Z,10.67
2018-07-25T07:22:30.854Z,7.80
2018-07-25T07:25:00.477Z,9.70
2018-07-25T07:27:29.418Z,8.37
2018-07-25T07:29:58.379Z,6.83
2018-07-25T07:32:27.281Z,8.83
2018-07-25T07:34:56.225Z,8.17
2018-07-25T07:37:25.369Z,6.37
2018-07-25T07:39:54.846Z,9.60
2018-07-25T07:42:23.754Z,6.50
2018-07-25T07:44:52.934Z,7.03
2018-07-25T07:47:21.868Z,6.13
2018-07-25T07:49:50.858Z,7.20
2018-07-25T07:52:19.835Z,6.50
2018-07-25T07:54:48.856Z,8.60
2018-07-25T07:57:17.943Z,5.40
2018-07-25T07:59:47.036Z,6.40
2018-07-25T08:02:16.033Z,10.40
2018-07-25T08:04:45.945Z,6.07
2018-07-25T08:07:14.948Z,7.80
2018-07-25T08:09:44.393Z,6.97
2018-07-25T08:12:13.418Z,8.03
2018-07-25T08:14:42.613Z,9.17
2018-07-25T08:17:12.579Z,9.37
2018-07-25T08:19:41.863Z,8.20
2018-07-25T08:22:12.563Z,8.00
2018-07-25T08:24:41.969Z,14.40
2018-07-25T08:27:11.057Z,14.80
2018-07-25T08:29:40.287Z,9.17
2018-07-25T08:32:09.378Z,7.97
2018-07-25T08:34:38.408Z,9.80
2018-07-25T08:37:07.511Z,9.27
2018-07-25T08:39:39.871Z,7.87
2018-07-25T08:42:09.084Z,9.60
2018-07-25T08:44:38.018Z,8.57
2018-07-25T08:47:06.983Z,9.70
2018-07-25T08:49:35.965Z,8.37
2018-07-25T08:52:07.272Z,9.70
2018-07-25T08:54:36.708Z,8.80
2018-07-25T08:57:07.864Z,10.40
2018-07-25T08:59:37.172Z,9.43
2018-07-25T09:02:06.496Z,10.23
2018-07-25T09:04:36.944Z,8.13
2018-07-25T09:07:06.153Z,8.23
2018-07-25T09:09:35.833Z,10.47
2018-07-25T09:12:04.945Z,7.73
2018-07-25T09:14:34.691Z,7.90
2018-07-25T09:17:03.971Z,8.47
2018-07-25T09:19:33.080Z,7.40
2018-07-25T09:22:02.276Z,7.30
2018-07-25T09:24:31.186Z,8.20
2018-07-25T09:27:00.138Z,6.80
2018-07-25T09:29:29.114Z,11.83
2018-07-25T09:31:58.193Z,7.00
2018-07-25T09:34:27.311Z,8.53
2018-07-25T09:36:56.340Z,7.33
2018-07-25T09:39:25.933Z,6.73
2018-07-25T09:41:54.954Z,7.80
2018-07-25T09:44:24.104Z,7.73
2018-07-25T09:46:53.287Z,10.13
2018-07-25T09:49:22.283Z,6.60
2018-07-25T09:51:51.316Z,9.50
2018-07-25T09:54:20.367Z,9.48
2018-07-25T09:56:50.067Z,7.95
2018-07-25T09:59:19.218Z,7.20
2018-07-25T10:01:48.254Z,6.42
2018-07-25T10:04:17.231Z,6.20
2018-07-25T10:06:46.250Z,8.18
2018-07-25T10:09:15.448Z,7.10
2018-07-25T10:11:44.482Z,6.78
2018-07-25T10:14:14.374Z,6.75
2018-07-25T10:16:43.432Z,6.87
2018-07-25T10:19:12.634Z,6.17
2018-07-25T10:21:41.668Z,6.60
2018-07-25T10:24:10.700Z,8.50
2018-07-25T10:26:39.698Z,6.72
2018-07-25T10:29:08.865Z,6.37
2018-07-25T10:31:38.092Z,5.72
2018-07-25T10:34:07.615Z,6.58
2018-07-25T10:36:37.041Z,7.40
2018-07-25T10:39:07.861Z,9.30
2018-07-25T10:41:36.935Z,5.85
2018-07-25T10:44:06.352Z,7.03
2018-07-25T10:46:35.790Z,5.90
2018-07-25T10:49:05.125Z,6.53
2018-07-25T10:51:34.433Z,6.30
2018-07-25T10:54:04.233Z,4.70
2018-07-25T10:56:33.221Z,5.60
2018-07-25T10:59:03.458Z,4.95
2018-07-25T11:01:32.230Z,4.65
2018-07-25T11:04:01.693Z,5.28
2018-07-25T11:06:30.693Z,5.25
2018-07-25T11:08:59.615Z,4.15
2018-07-25T11:11:29.737Z,4.95
2018-07-25T11:13:59.946Z,6.05
2018-07-25T11:16:29.427Z,6.58
2018-07-25T11:18:59.526Z,4.87
2018-07-25T11:21:28.555Z,5.00
2018-07-25T11:23:58.057Z,4.60
2018-07-25T11:26:27.374Z,4.03
2018-07-25T11:28:56.525Z,5.70
2018-07-25T11:31:25.635Z,5.70
2018-07-25T11:33:54.635Z,4.30
2018-07-25T11:36:23.678Z,6.40
2018-07-25T11:38:52.623Z,3.62
2018-07-25T11:41:21.565Z,4.47
2018-07-25T11:43:50.559Z,5.67
2018-07-25T11:46:19.884Z,3.80
2018-07-25T11:48:48.841Z,3.37
2018-07-25T11:51:18.177Z,4.55
2018-07-25T11:53:47.314Z,7.60
2018-07-25T11:56:16.239Z,3.87
2018-07-25T11:58:45.238Z,7.72
2018-07-25T12:01:14.192Z,7.83
2018-07-25T12:03:43.101Z,3.80
2018-07-25T12:06:12.077Z,6.97
2018-07-25T12:08:41.062Z,5.08
2018-07-25T12:11:10.496Z,5.20
2018-07-25T12:13:39.490Z,4.22
2018-07-25T12:16:08.500Z,5.97
2018-07-25T12:18:37.490Z,4.08
2018-07-25T12:21:07.639Z,3.47
2018-07-25T12:23:36.902Z,4.33
2018-07-25T12:26:06.058Z,4.28
2018-07-25T12:28:35.297Z,3.85
2018-07-25T12:31:05.000Z,9.18
2018-07-25T12:33:34.027Z,6.62
2018-07-25T12:36:03.110Z,5.95
2018-07-25T12:38:32.363Z,3.70
2018-07-25T12:41:01.334Z,4.50
2018-07-25T12:43:30.867Z,4.42
2018-07-25T12:45:59.970Z,4.15
2018-07-25T12:48:29.073Z,5.55
2018-07-25T12:50:58.156Z,6.10
2018-07-25T12:53:27.199Z,3.83
2018-07-25T12:55:56.383Z,3.85
2018-07-25T12:58:25.539Z,7.42
2018-07-25T13:00:54.529Z,3.50
2018-07-25T13:03:23.527Z,3.45
2018-07-25T13:05:52.526Z,6.20
2018-07-25T13:08:21.717Z,4.55
2018-07-25T13:10:50.976Z,4.80
2018-07-25T13:13:20.015Z,4.03
2018-07-25T13:15:49.083Z,4.25
2018-07-25T13:18:18.066Z,3.65
2018-07-25T13:20:47.373Z,3.77
2018-07-25T13:23:15.926Z,3.85
2018-07-25T13:25:45.241Z,2.70
2018-07-25T13:28:14.361Z,3.65
2018-07-25T13:30:44.433Z,3.50
2018-07-25T13:33:13.555Z,6.05
2018-07-25T13:35:42.542Z,3.83
2018-07-25T13:38:11.565Z,4.85
2018-07-25T13:40:40.565Z,3.22
2018-07-25T13:43:09.556Z,3.37
2018-07-25T13:45:38.651Z,4.53
2018-07-25T13:48:07.694Z,3.05
2018-07-25T13:50:36.707Z,3.20
2018-07-25T13:53:06.155Z,6.83
2018-07-25T13:55:35.117Z,5.25
2018-07-25T13:58:04.188Z,3.20
2018-07-25T14:00:33.158Z,4.95
2018-07-25T14:03:02.211Z,4.55
2018-07-25T14:05:31.308Z,3.40
2018-07-25T14:08:00.615Z,3.62
2018-07-25T14:10:29.682Z,5.55
2018-07-25T14:12:58.691Z,2.72
2018-07-25T14:15:27.779Z,5.30
2018-07-25T14:17:56.983Z,3.85
2018-07-25T14:20:26.697Z,3.27
2018-07-25T14:23:13.258Z,4.50
2018-07-25T14:25:42.883Z,4.92
2018-07-25T14:28:12.240Z,3.62
2018-07-25T14:30:41.703Z,3.95
2018-07-25T14:33:10.639Z,5.22
2018-07-25T14:35:39.630Z,4.72
2018-07-25T14:38:09.463Z,2.95
2018-07-25T14:40:38.449Z,4.17
2018-07-25T14:43:07.824Z,4.95
2018-07-25T14:45:36.829Z,4.42
2018-07-25T14:48:05.952Z,3.33
2018-07-25T14:50:34.943Z,3.42
2018-07-25T14:53:03.988Z,4.08
2018-07-25T14:55:32.950Z,5.90
2018-07-25T14:58:02.077Z,3.30
2018-07-25T15:00:31.269Z,4.28
2018-07-25T15:03:00.814Z,3.75
2018-07-25T15:05:31.458Z,3.77
2018-07-25T15:08:00.606Z,3.20
2018-07-25T15:10:30.302Z,8.20
2018-07-25T15:13:02.044Z,4.35
2018-07-25T15:15:35.085Z,5.28
2018-07-25T15:18:04.845Z,4.42
2018-07-25T15:20:34.849Z,3.45
2018-07-25T15:23:04.779Z,3.85
2018-07-25T15:25:34.698Z,5.15
2018-07-25T15:28:03.886Z,3.60
2018-07-25T15:30:34.450Z,6.67
2018-07-25T15:33:03.621Z,5.70
2018-07-25T15:35:32.702Z,4.42
2018-07-25T15:38:02.106Z,7.78
2018-07-25T15:40:37.045Z,4.53
2018-07-25T15:43:06.461Z,5.85
2018-07-25T15:45:36.326Z,3.20
2018-07-25T15:48:08.831Z,2.67
2018-07-25T15:50:38.563Z,3.60
2018-07-25T15:53:08.660Z,4.92
2018-07-25T15:55:39.982Z,4.25
2018-07-25T15:58:09.015Z,5.50
2018-07-25T16:00:38.023Z,3.50
2018-07-25T16:03:07.074Z,4.78
2018-07-25T16:05:36.113Z,3.10
2018-07-25T16:08:05.291Z,5.17
2018-07-25T16:10:34.274Z,3.60
2018-07-25T16:13:06.756Z,6.55
2018-07-25T16:15:39.784Z,4.85
2018-07-25T16:18:12.478Z,4.37
2018-07-25T16:21:05.428Z,4.50
2018-07-25T16:23:35.880Z,4.22
2018-07-25T16:26:05.206Z,5.05
2018-07-25T16:28:34.241Z,4.85
2018-07-25T16:31:04.769Z,3.65
2018-07-25T16:33:35.292Z,4.60
2018-07-25T16:36:05.894Z,5.62
2018-07-25T16:38:35.925Z,4.40
2018-07-25T16:41:05.605Z,4.83
2018-07-25T16:43:35.250Z,4.00
2018-07-25T16:46:05.205Z,5.20
2018-07-25T16:48:34.394Z,4.03
2018-07-25T16:51:03.975Z,3.95
2018-07-25T16:53:33.088Z,4.55
2018-07-25T16:56:02.255Z,4.35
2018-07-25T16:58:31.909Z,4.47
2018-07-25T17:01:01.051Z,5.50
2018-07-25T17:03:30.915Z,4.95
2018-07-25T17:06:00.301Z,5.00
2018-07-25T17:08:31.402Z,5.45
2018-07-25T17:11:00.645Z,5.12
2018-07-25T17:13:29.725Z,8.05
2018-07-25T17:15:58.758Z,5.60
2018-07-25T17:18:27.833Z,7.80
2018-07-25T17:20:57.836Z,5.95
2018-07-25T17:23:26.893Z,8.28
2018-07-25T17:25:55.838Z,5.70
2018-07-25T17:28:24.804Z,4.97
2018-07-25T17:30:54.019Z,7.78
2018-07-25T17:33:23.149Z,5.70
2018-07-25T17:35:52.229Z,7.62
2018-07-25T17:38:21.440Z,6.83
2018-07-25T17:40:51.200Z,6.75
2018-07-25T17:43:21.374Z,5.12
2018-07-25T17:45:50.661Z,6.78
2018-07-25T17:48:19.274Z,6.40
2018-07-25T17:50:48.743Z,7.97
2018-07-25T17:53:18.500Z,6.78
2018-07-25T17:55:47.455Z,8.20
2018-07-25T17:58:16.461Z,7.65
2018-07-25T18:00:45.474Z,6.17
2018-07-25T18:03:15.081Z,8.65
2018-07-25T18:05:44.127Z,6.40
2018-07-25T18:08:13.161Z,7.47
2018-07-25T18:10:42.206Z,7.53
2018-07-25T18:13:16.544Z,8.83
2018-07-25T18:15:45.724Z,8.13
2018-07-25T18:18:15.013Z,6.80
2018-07-25T18:20:44.003Z,7.12
2018-07-25T18:23:13.240Z,6.58
2018-07-25T18:25:42.415Z,7.65
2018-07-25T18:28:11.717Z,7.12
2018-07-25T18:30:40.709Z,8.23
2018-07-25T18:33:09.858Z,8.00
2018-07-25T18:35:39.147Z,7.75
2018-07-25T18:38:08.227Z,9.60
2018-07-25T18:40:37.210Z,9.78
2018-07-25T18:43:06.782Z,8.50
2018-07-25T18:45:35.883Z,9.95
2018-07-25T18:48:05.235Z,9.23
2018-07-25T18:50:34.457Z,7.35
2018-07-25T18:53:03.807Z,8.55
2018-07-25T18:55:32.847Z,8.18
2018-07-25T18:58:01.818Z,10.15
2018-07-25T19:00:31.604Z,9.78
2018-07-25T19:03:00.613Z,8.38
2018-07-25T19:05:30.870Z,8.18
2018-07-25T19:08:01.085Z,8.75
2018-07-25T19:10:30.551Z,9.93
2018-07-25T19:12:59.611Z,8.95
2018-07-25T19:15:30.823Z,11.18
2018-07-25T19:18:00.254Z,10.55
2018-07-25T19:20:29.378Z,7.40
2018-07-25T19:22:58.302Z,7.40
2018-07-25T19:25:27.260Z,8.60
2018-07-25T19:27:56.380Z,8.50
2018-07-25T19:30:25.358Z,11.15
2018-07-25T19:32:54.365Z,9.38
2018-07-25T19:35:24.001Z,8.98
2018-07-25T19:37:54.393Z,11.70
2018-07-25T19:40:24.307Z,9.15
2018-07-25T19:42:53.544Z,12.73
2018-07-25T19:45:23.115Z,10.60
2018-07-25T19:47:52.289Z,9.15
2018-07-25T19:50:21.369Z,9.05
2018-07-25T19:52:50.446Z,9.03
2018-07-25T19:55:19.471Z,12.90
2018-07-25T19:57:49.286Z,8.68
2018-07-25T20:00:18.336Z,11.50
2018-07-25T20:02:48.596Z,12.28
2018-07-25T20:05:19.125Z,12.10
2018-07-25T20:07:48.476Z,11.00
2018-07-25T20:10:17.924Z,12.23
2018-07-25T20:12:47.499Z,10.88
2018-07-25T20:15:22.389Z,10.00
2018-07-25T20:17:52.343Z,9.98
2018-07-25T20:20:22.293Z,14.90
2018-07-25T20:22:51.255Z,15.00
2018-07-25T20:25:20.573Z,15.30
2018-07-25T20:27:49.545Z,10.75
2018-07-25T20:30:18.658Z,9.88
2018-07-25T20:32:48.255Z,10.00
2018-07-25T20:35:19.050Z,12.75
2018-07-25T20:37:49.698Z,12.30
2018-07-25T20:40:19.758Z,12.73
2018-07-25T20:42:49.072Z,10.53
2018-07-25T20:45:18.027Z,8.85
2018-07-25T20:47:47.939Z,10.15
2018-07-25T20:50:17.140Z,13.75
2018-07-25T20:52:46.536Z,10.58
2018-07-25T20:55:15.740Z,12.37
2018-07-25T20:57:44.799Z,14.70
2018-07-25T21:00:13.766Z,9.93
2018-07-25T21:02:42.810Z,9.95
2018-07-25T21:05:11.779Z,14.98
2018-07-25T21:07:40.740Z,14.23
2018-07-25T21:10:09.754Z,11.65
2018-07-25T21:12:38.703Z,9.95
2018-07-25T21:15:07.885Z,10.25
2018-07-25T21:17:37.570Z,12.82
2018-07-25T21:20:07.236Z,9.30
2018-07-25T21:22:37.597Z,12.98
2018-07-25T21:25:08.544Z,9.35
2018-07-25T21:27:37.500Z,10.80
2018-07-25T21:30:06.824Z,10.93
2018-07-25T21:32:36.153Z,13.28
2018-07-25T21:35:05.416Z,13.90
2018-07-25T21:37:35.052Z,15.43
2018-07-25T21:40:04.318Z,12.60
2018-07-25T21:42:33.490Z,11.85
2018-07-25T21:45:02.826Z,11.70
2018-07-25T21:47:32.014Z,16.15
2018-07-25T21:50:01.477Z,12.50
2018-07-25T21:52:30.439Z,13.32
2018-07-25T21:54:59.401Z,13.10
2018-07-25T21:57:28.354Z,12.82
2018-07-25T21:59:57.374Z,14.38
2018-07-25T22:02:26.413Z,11.83
2018-07-25T22:04:55.391Z,15.60
2018-07-25T22:07:24.335Z,12.65
2018-07-25T22:09:53.422Z,12.75
2018-07-25T22:12:22.396Z,11.70
2018-07-25T22:14:52.283Z,13.38
2018-07-25T22:17:21.336Z,11.93
2018-07-25T22:19:50.302Z,13.60
2018-07-25T22:22:19.230Z,12.25
2018-07-25T22:24:48.194Z,17.48
2018-07-25T22:27:17.143Z,12.78
2018-07-25T22:29:46.116Z,11.48
2018-07-25T22:32:15.172Z,12.55
2018-07-25T22:34:44.087Z,10.35
2018-07-25T22:37:13.076Z,9.68
2018-07-25T22:39:42.116Z,15.20
2018-07-25T22:42:11.116Z,10.70
2018-07-25T22:44:40.075Z,9.45
2018-07-25T22:47:09.059Z,9.68
2018-07-25T22:49:38.035Z,10.18
2018-07-25T22:52:07.037Z,12.68
2018-07-25T22:54:35.950Z,10.55
2018-07-25T22:57:04.939Z,10.15
2018-07-25T22:59:33.880Z,10.23
2018-07-25T23:02:02.866Z,20.82
2018-07-25T23:04:32.152Z,11.63
2018-07-25T23:07:01.073Z,12.28
2018-07-25T23:09:30.340Z,11.25
2018-07-25T23:11:59.288Z,9.38
2018-07-25T23:14:28.332Z,11.38
2018-07-25T23:16:57.338Z,11.03
2018-07-25T23:19:26.372Z,12.45
2018-07-25T23:21:55.319Z,11.08
2018-07-25T23:24:24.228Z,11.43
2018-07-25T23:26:53.089Z,11.00
2018-07-25T23:29:22.016Z,12.20
2018-07-25T23:31:50.880Z,11.70
2018-07-25T23:34:19.712Z,12.47
2018-07-25T23:36:48.579Z,13.05
2018-07-25T23:39:17.521Z,13.08
2018-07-25T23:41:46.630Z,11.85
2018-07-25T23:44:15.587Z,12.68
2018-07-25T23:46:45.396Z,11.65
2018-07-25T23:49:14.262Z,12.05
2018-07-25T23:51:43.139Z,11.70
2018-07-25T23:54:12.258Z,12.98
2018-07-25T23:56:41.126Z,11.50
2018-07-25T23:59:09.987Z,12.98
